Time;durP1;ratioP1;P1;durP2;ratioP2;P2;SDS_P1;SDS_P2;PMS_P1;PMS_P2;Temp;Humidity;BMP_temperature;BMP_pressure;BME280_temperature;BME280_humidity;BME280_pressure;Samples;Min_cycle;Max_cycle;Signal;HPM_P1;HPM_P2
2023/07/12 00:01:22;;;;;;;5.88;2.25;;;;;;;;;;5082908;28;20040;-84
2023/07/12 00:03:48;;;;;;;8.88;2.47;;;;;;;;;;5083004;28;20332;-84
2023/07/12 00:06:19;;;;;;;4.68;2.13;;;;;;;;;;5081409;28;20029;-83
2023/07/12 00:08:46;;;;;;;6.80;1.90;;;;;;;;;;5081611;28;20029;-83
2023/07/12 00:11:20;;;;;;;4.43;2.10;;;;;;;;;;5081426;28;20086;-84
2023/07/12 00:13:46;;;;;;;4.90;2.13;;;;;;;;;;5080359;28;20032;-84
2023/07/12 00:16:23;;;;;;;4.05;1.90;;;;;;;;;;5069884;28;20036;-82
2023/07/12 00:18:48;;;;;;;3.53;1.80;;;;;;;;;;5064214;28;20121;-84
2023/07/12 00:21:25;;;;;;;5.28;2.20;;;;;;;;;;5060547;28;20056;-84
2023/07/12 00:23:56;;;;;;;6.35;2.30;;;;;;;;;;5066805;28;20028;-84
2023/07/12 00:26:26;;;;;;;6.05;2.30;;;;;;;;;;5064951;28;20037;-84
2023/07/12 00:28:52;;;;;;;5.10;2.55;;;;;;;;;;5060356;28;20093;-84
2023/07/12 00:31:20;;;;;;;5.28;2.67;;;;;;;;;;5075330;28;20380;-84
2023/07/12 00:33:45;;;;;;;5.78;2.70;;;;;;;;;;5064760;28;20029;-86
2023/07/12 00:36:17;;;;;;;6.50;2.58;;;;;;;;;;5070652;28;20449;-82
2023/07/12 00:38:42;;;;;;;6.40;2.60;;;;;;;;;;5070037;28;20060;-83
2023/07/12 00:41:08;;;;;;;5.00;2.10;;;;;;;;;;5073391;28;20025;-85
2023/07/12 00:43:40;;;;;;;3.30;1.80;;;;;;;;;;5064949;28;20467;-84
2023/07/12 00:46:18;;;;;;;5.20;1.70;;;;;;;;;;5069419;28;20057;-83
2023/07/12 00:48:47;;;;;;;6.85;1.65;;;;;;;;;;5057794;28;20036;-86
2023/07/12 00:51:53;;;;;;;7.50;1.70;;;;;;;;;;5066507;28;20148;-83
2023/07/12 00:54:21;;;;;;;3.90;1.85;;;;;;;;;;5064703;28;20041;-86
2023/07/12 00:56:46;;;;;;;11.10;2.05;;;;;;;;;;5048605;28;20083;-86
2023/07/12 00:59:19;;;;;;;4.75;1.90;;;;;;;;;;5064173;28;20036;-83
2023/07/12 01:01:47;;;;;;;6.63;1.95;;;;;;;;;;5073853;28;20058;-83
2023/07/12 01:04:20;;;;;;;4.60;1.55;;;;;;;;;;5057226;28;20506;-83
2023/07/12 01:06:46;;;;;;;4.70;1.77;;;;;;;;;;5066149;28;20040;-83
2023/07/12 01:09:14;;;;;;;6.50;1.75;;;;;;;;;;5056049;28;20032;-83
2023/07/12 01:11:41;;;;;;;3.90;1.88;;;;;;;;;;5058317;28;20065;-83
2023/07/12 01:14:12;;;;;;;6.85;1.80;;;;;;;;;;5055525;28;20052;-83
2023/07/12 01:16:41;;;;;;;7.32;2.17;;;;;;;;;;5082934;28;20124;-83
2023/07/12 01:19:06;;;;;;;4.93;1.98;;;;;;;;;;5070471;28;20024;-83
2023/07/12 01:21:33;;;;;;;6.75;2.00;;;;;;;;;;5074565;28;20043;-80
2023/07/12 01:24:00;;;;;;;4.85;1.60;;;;;;;;;;5070829;28;20035;-83
2023/07/12 01:26:32;;;;;;;4.85;2.00;;;;;;;;;;5074258;28;20036;-86
2023/07/12 01:29:00;;;;;;;8.80;1.90;;;;;;;;;;5071420;28;20399;-83
2023/07/12 01:31:27;;;;;;;5.35;2.00;;;;;;;;;;5066278;28;20021;-83
2023/07/12 01:33:54;;;;;;;4.90;1.92;;;;;;;;;;5071349;28;20025;-83
2023/07/12 01:36:21;;;;;;;3.47;1.80;;;;;;;;;;5063355;28;20091;-83
2023/07/12 01:38:50;;;;;;;5.38;2.22;;;;;;;;;;5065953;28;20036;-82
2023/07/12 01:41:15;;;;;;;6.55;1.88;;;;;;;;;;5053778;28;20040;-83
2023/07/12 01:43:41;;;;;;;5.90;1.90;;;;;;;;;;5067198;28;20029;-82
2023/07/12 01:46:06;;;;;;;3.92;2.00;;;;;;;;;;5062485;28;20487;-83
2023/07/12 01:48:32;;;;;;;6.15;1.80;;;;;;;;;;5073259;28;20024;-82
2023/07/12 01:50:59;;;;;;;6.43;1.98;;;;;;;;;;5076325;28;20446;-80
2023/07/12 01:53:24;;;;;;;8.20;2.10;;;;;;;;;;5054597;28;20029;-83
2023/07/12 01:55:51;;;;;;;5.07;2.03;;;;;;;;;;5057399;28;20037;-83
2023/07/12 01:58:16;;;;;;;5.72;2.40;;;;;;;;;;5057442;28;20028;-83
2023/07/12 02:00:42;;;;;;;5.43;2.38;;;;;;;;;;5055508;28;20040;-83
2023/07/12 02:03:08;;;;;;;4.68;2.00;;;;;;;;;;5059109;28;20119;-83
2023/07/12 02:05:33;;;;;;;5.35;1.70;;;;;;;;;;5073695;28;20105;-83
2023/07/12 02:07:59;;;;;;;4.43;2.40;;;;;;;;;;5066862;28;20028;-83
2023/07/12 02:10:25;;;;;;;7.30;2.45;;;;;;;;;;5065712;28;20033;-83
2023/07/12 02:12:51;;;;;;;6.07;2.47;;;;;;;;;;5079114;28;20111;-84
2023/07/12 02:15:18;;;;;;;6.38;2.50;;;;;;;;;;5067373;28;20021;-83
2023/07/12 02:17:43;;;;;;;6.10;2.33;;;;;;;;;;5065023;28;20390;-83
2023/07/12 02:20:12;;;;;;;4.63;2.47;;;;;;;;;;5055416;28;20086;-85
2023/07/12 02:22:41;;;;;;;7.95;2.50;;;;;;;;;;5071498;28;20024;-83
2023/07/12 02:25:08;;;;;;;6.70;2.20;;;;;;;;;;5064893;28;20039;-84
2023/07/12 02:27:34;;;;;;;4.85;2.40;;;;;;;;;;5065794;28;20123;-83
2023/07/12 02:29:59;;;;;;;5.35;2.40;;;;;;;;;;5060286;28;20072;-82
2023/07/12 02:32:27;;;;;;;5.25;2.30;;;;;;;;;;5060548;28;20037;-82
2023/07/12 02:34:52;;;;;;;6.57;2.60;;;;;;;;;;5063118;28;20069;-82
2023/07/12 02:37:18;;;;;;;6.05;2.47;;;;;;;;;;5061721;28;20036;-83
2023/07/12 02:39:45;;;;;;;7.53;2.30;;;;;;;;;;5058957;28;20491;-83
2023/07/12 02:42:11;;;;;;;5.93;2.30;;;;;;;;;;5071124;28;20041;-83
2023/07/12 02:44:39;;;;;;;3.70;2.00;;;;;;;;;;5059138;28;20526;-82
2023/07/12 02:47:09;;;;;;;9.15;2.60;;;;;;;;;;5056675;28;20527;-83
2023/07/12 02:49:35;;;;;;;7.20;2.15;;;;;;;;;;5059716;28;20044;-81
2023/07/12 02:52:01;;;;;;;7.60;2.20;;;;;;;;;;5056371;28;20403;-83
2023/07/12 02:54:26;;;;;;;4.45;1.90;;;;;;;;;;5058754;28;20033;-84
2023/07/12 02:56:52;;;;;;;4.93;2.22;;;;;;;;;;5064540;28;20551;-85
2023/07/12 02:59:17;;;;;;;4.95;1.88;;;;;;;;;;5062271;28;20036;-83
2023/07/12 03:01:46;;;;;;;6.30;2.15;;;;;;;;;;5056635;28;20037;-83
2023/07/12 03:04:12;;;;;;;6.28;2.20;;;;;;;;;;5063049;28;20063;-83
2023/07/12 03:06:37;;;;;;;8.02;2.22;;;;;;;;;;5062785;28;20032;-83
2023/07/12 03:09:05;;;;;;;6.70;1.98;;;;;;;;;;5070436;28;20179;-83
2023/07/12 03:11:37;;;;;;;4.63;1.70;;;;;;;;;;5061904;28;20067;-82
2023/07/12 03:14:04;;;;;;;6.20;2.00;;;;;;;;;;5061436;28;20514;-83
2023/07/12 03:16:29;;;;;;;7.18;1.95;;;;;;;;;;5061590;28;20029;-83
2023/07/12 03:19:04;;;;;;;5.82;1.92;;;;;;;;;;5065953;28;20044;-83
2023/07/12 03:21:30;;;;;;;4.07;1.80;;;;;;;;;;5061727;28;20071;-83
2023/07/12 03:23:55;;;;;;;6.10;2.00;;;;;;;;;;5057520;28;20041;-83
2023/07/12 03:26:21;;;;;;;5.10;1.95;;;;;;;;;;5056304;28;20075;-83
2023/07/12 03:28:49;;;;;;;5.82;2.00;;;;;;;;;;5055725;28;20046;-83
2023/07/12 03:31:22;;;;;;;6.05;2.30;;;;;;;;;;5065541;28;20028;-82
2023/07/12 03:33:48;;;;;;;6.85;2.50;;;;;;;;;;5063788;28;20391;-84
2023/07/12 03:36:15;;;;;;;4.68;2.10;;;;;;;;;;5069634;28;20044;-83
2023/07/12 03:38:53;;;;;;;5.18;2.40;;;;;;;;;;5056347;28;20124;-83
2023/07/12 03:41:20;;;;;;;6.53;2.47;;;;;;;;;;5067684;28;20032;-83
2023/07/12 03:43:49;;;;;;;4.55;2.20;;;;;;;;;;5064737;28;20041;-84
2023/07/12 03:46:16;;;;;;;2.78;1.67;;;;;;;;;;5067093;28;20025;-85
2023/07/12 03:48:42;;;;;;;4.80;1.80;;;;;;;;;;5059131;28;20123;-83
2023/07/12 03:51:09;;;;;;;4.78;2.05;;;;;;;;;;5067009;28;20055;-86
2023/07/12 03:53:41;;;;;;;5.57;1.90;;;;;;;;;;5066401;28;20047;-83
2023/07/12 03:56:06;;;;;;;6.35;2.00;;;;;;;;;;5064890;28;20033;-83
2023/07/12 03:58:34;;;;;;;4.65;1.90;;;;;;;;;;5065112;28;20040;-84
2023/07/12 04:01:05;;;;;;;7.07;1.90;;;;;;;;;;5064183;28;20046;-83
2023/07/12 04:03:40;;;;;;;5.50;1.65;;;;;;;;;;5070771;28;20090;-84
2023/07/12 04:06:42;;;;;;;3.72;1.83;;;;;;;;;;5061960;28;20039;-83
2023/07/12 04:09:08;;;;;;;4.90;2.00;;;;;;;;;;5072383;28;20399;-83
2023/07/12 04:11:36;;;;;;;5.82;1.70;;;;;;;;;;5072090;28;20660;-81
2023/07/12 04:14:02;;;;;;;5.63;1.70;;;;;;;;;;5070791;28;20408;-83
2023/07/12 04:16:29;;;;;;;4.40;1.88;;;;;;;;;;5061750;28;20048;-83
2023/07/12 04:18:54;;;;;;;4.85;1.70;;;;;;;;;;5076300;28;20045;-83
2023/07/12 04:21:20;;;;;;;3.22;1.60;;;;;;;;;;5068119;28;20127;-83
2023/07/12 04:23:47;;;;;;;2.72;1.80;;;;;;;;;;5070817;28;20029;-82
2023/07/12 04:26:13;;;;;;;3.35;1.50;;;;;;;;;;5065972;28;20086;-86
2023/07/12 04:28:51;;;;;;;4.18;1.92;;;;;;;;;;5069714;28;20036;-84
2023/07/12 04:31:19;;;;;;;5.72;2.05;;;;;;;;;;5067063;28;20095;-83
2023/07/12 04:33:51;;;;;;;3.28;1.70;;;;;;;;;;5065818;28;20070;-81
2023/07/12 04:36:23;;;;;;;5.97;1.80;;;;;;;;;;5063478;28;20024;-83
2023/07/12 04:38:49;;;;;;;3.40;2.00;;;;;;;;;;5067162;28;20032;-82
2023/07/12 04:41:15;;;;;;;6.97;2.03;;;;;;;;;;5063968;28;20331;-83
2023/07/12 04:43:40;;;;;;;4.30;1.70;;;;;;;;;;5065388;28;20048;-83
2023/07/12 04:46:06;;;;;;;6.65;2.13;;;;;;;;;;5061312;28;20040;-82
2023/07/12 04:48:33;;;;;;;4.90;1.90;;;;;;;;;;5059567;28;20074;-83
2023/07/12 04:51:11;;;;;;;8.43;2.25;;;;;;;;;;5058518;28;20491;-84
2023/07/12 04:53:37;;;;;;;5.25;1.90;;;;;;;;;;5060347;28;20033;-81
2023/07/12 04:56:02;;;;;;;5.55;1.88;;;;;;;;;;5060688;28;20064;-84
2023/07/12 04:58:28;;;;;;;5.90;1.90;;;;;;;;;;5060418;28;20108;-85
2023/07/12 05:01:03;;;;;;;5.88;1.85;;;;;;;;;;5059976;28;20519;-82
2023/07/12 05:03:29;;;;;;;4.63;1.88;;;;;;;;;;5064207;28;20031;-82
2023/07/12 05:05:57;;;;;;;7.32;2.20;;;;;;;;;;5065531;28;20040;-83
2023/07/12 05:08:22;;;;;;;7.20;1.90;;;;;;;;;;5062650;28;20036;-83
2023/07/12 05:10:48;;;;;;;4.50;1.98;;;;;;;;;;5065270;28;20498;-81
2023/07/12 05:13:13;;;;;;;5.72;1.92;;;;;;;;;;5061414;28;20353;-83
2023/07/12 05:27:44;;;;;;;3.28;1.67;;;;;;;;;;5062109;28;20055;-82
2023/07/12 05:30:11;;;;;;;3.30;1.70;;;;;;;;;;5072538;28;20037;-82
2023/07/12 05:32:36;;;;;;;4.22;1.73;;;;;;;;;;5059579;28;20040;-83
2023/07/12 05:35:03;;;;;;;3.35;1.63;;;;;;;;;;5058244;28;20063;-80
2023/07/12 05:37:28;;;;;;;2.92;1.88;;;;;;;;;;5082015;23;20067;-83
2023/07/12 05:39:54;;;;;;;3.38;1.83;;;;;;;;;;5024654;28;20050;-84
2023/07/12 05:42:19;;;;;;;4.45;1.73;;;;;;;;;;5024018;28;20045;-84
2023/07/12 05:44:45;;;;;;;4.63;1.70;;;;;;;;;;5037745;28;20058;-84
2023/07/12 05:47:11;;;;;;;6.03;1.85;;;;;;;;;;5040379;28;20036;-83
2023/07/12 05:49:36;;;;;;;4.38;1.90;;;;;;;;;;5040497;28;20037;-82
2023/07/12 05:52:02;;;;;;;5.03;1.80;;;;;;;;;;5039618;28;20030;-83
2023/07/12 05:54:29;;;;;;;5.93;1.90;;;;;;;;;;5038390;28;20041;-82
2023/07/12 05:56:54;;;;;;;3.35;1.70;;;;;;;;;;5035709;28;20041;-81
2023/07/12 05:59:21;;;;;;;3.08;1.75;;;;;;;;;;5036992;28;20049;-83
2023/07/12 06:01:47;;;;;;;3.28;1.92;;;;;;;;;;5034709;28;20064;-83
2023/07/12 06:04:12;;;;;;;3.95;1.90;;;;;;;;;;5033912;28;20037;-81
2023/07/12 06:06:38;;;;;;;6.20;1.70;;;;;;;;;;5034460;28;20034;-83
2023/07/12 06:09:04;;;;;;;4.68;2.03;;;;;;;;;;5031639;28;20042;-82
2023/07/12 06:11:30;;;;;;;4.25;2.00;;;;;;;;;;5030946;28;20041;-83
2023/07/12 06:13:55;;;;;;;3.75;1.50;;;;;;;;;;5026506;28;20034;-83
2023/07/12 06:16:21;;;;;;;5.05;1.80;;;;;;;;;;5013746;28;20038;-83
2023/07/12 06:18:46;;;;;;;4.05;1.77;;;;;;;;;;5011767;28;20041;-83
2023/07/12 06:21:12;;;;;;;3.15;1.60;;;;;;;;;;5028236;28;20029;-83
2023/07/12 06:23:37;;;;;;;5.72;1.80;;;;;;;;;;5027003;28;20475;-81
2023/07/12 06:26:04;;;;;;;5.85;1.65;;;;;;;;;;5023930;28;20037;-82
2023/07/12 06:28:30;;;;;;;5.07;1.83;;;;;;;;;;5019071;28;20057;-80
2023/07/12 06:30:55;;;;;;;7.75;1.60;;;;;;;;;;5023572;28;20033;-80
2023/07/12 06:33:21;;;;;;;4.00;1.80;;;;;;;;;;5037580;28;20034;-82
2023/07/12 06:35:46;;;;;;;5.15;1.83;;;;;;;;;;5021984;28;20044;-82
2023/07/12 06:38:12;;;;;;;5.00;1.70;;;;;;;;;;5019791;28;20038;-82
2023/07/12 06:40:39;;;;;;;6.32;2.00;;;;;;;;;;5021438;28;20128;-81
2023/07/12 06:43:04;;;;;;;4.93;1.50;;;;;;;;;;5021918;28;20025;-81
2023/07/12 06:45:30;;;;;;;5.47;1.63;;;;;;;;;;5028555;28;20473;-83
2023/07/12 06:47:56;;;;;;;3.78;1.70;;;;;;;;;;5027205;28;20044;-82
2023/07/12 06:50:21;;;;;;;5.07;1.70;;;;;;;;;;5027703;28;20037;-83
2023/07/12 06:52:47;;;;;;;4.10;1.70;;;;;;;;;;5027719;28;20030;-81
2023/07/12 06:55:13;;;;;;;5.93;1.85;;;;;;;;;;5025404;28;20203;-83
2023/07/12 06:57:38;;;;;;;4.05;1.70;;;;;;;;;;5025523;28;20045;-84
2023/07/12 07:00:09;;;;;;;4.50;1.90;;;;;;;;;;5026253;28;20065;-83
2023/07/12 07:02:35;;;;;;;4.18;1.65;;;;;;;;;;5019993;28;20042;-83
2023/07/12 07:05:00;;;;;;;3.78;1.88;;;;;;;;;;5025693;28;20037;-82
2023/07/12 07:07:28;;;;;;;3.35;1.80;;;;;;;;;;5025150;28;20384;-83
2023/07/12 07:09:54;;;;;;;3.65;1.80;;;;;;;;;;5035941;28;20038;-82
2023/07/12 07:12:19;;;;;;;5.00;1.85;;;;;;;;;;5038900;28;20072;-83
2023/07/12 07:14:45;;;;;;;8.55;2.15;;;;;;;;;;5022981;28;20116;-82
2023/07/12 07:17:13;;;;;;;9.32;2.30;;;;;;;;;;5021598;28;20049;-82
2023/07/12 07:19:38;;;;;;;8.45;2.28;;;;;;;;;;5021945;28;20432;-83
2023/07/12 07:22:04;;;;;;;7.75;2.05;;;;;;;;;;5018732;28;20056;-81
2023/07/12 07:24:30;;;;;;;5.78;2.17;;;;;;;;;;5016422;28;20431;-80
2023/07/12 07:26:55;;;;;;;4.43;2.20;;;;;;;;;;5039199;28;20695;-82
2023/07/12 07:29:21;;;;;;;9.30;2.22;;;;;;;;;;5022000;28;20033;-80
2023/07/12 07:31:47;;;;;;;5.60;1.60;;;;;;;;;;5040152;28;20049;-81
2023/07/12 07:34:14;;;;;;;9.10;1.60;;;;;;;;;;5044989;28;20044;-81
2023/07/12 07:36:41;;;;;;;7.50;1.60;;;;;;;;;;5042467;28;20021;-80
2023/07/12 07:39:06;;;;;;;4.15;1.40;;;;;;;;;;5048341;28;20044;-82
2023/07/12 07:41:32;;;;;;;3.15;1.30;;;;;;;;;;5042113;28;20030;-82
2023/07/12 07:43:58;;;;;;;4.07;1.50;;;;;;;;;;5026373;28;20393;-83
2023/07/12 07:46:23;;;;;;;3.10;1.40;;;;;;;;;;5043213;28;20044;-83
2023/07/12 07:48:50;;;;;;;1.83;1.20;;;;;;;;;;5040425;28;20367;-83
2023/07/12 07:51:16;;;;;;;4.30;1.40;;;;;;;;;;5038816;28;20036;-81
2023/07/12 07:53:42;;;;;;;2.47;1.20;;;;;;;;;;5022111;28;20062;-81
2023/07/12 07:56:07;;;;;;;1.85;1.10;;;;;;;;;;5049476;28;20033;-81
2023/07/12 07:58:33;;;;;;;3.38;1.15;;;;;;;;;;5033765;28;20030;-82
2023/07/12 08:00:59;;;;;;;2.17;1.02;;;;;;;;;;5041310;28;20045;-80
2023/07/12 08:03:24;;;;;;;3.03;1.25;;;;;;;;;;5040423;28;20128;-82
2023/07/12 08:05:50;;;;;;;4.15;1.52;;;;;;;;;;5019782;28;20054;-82
2023/07/12 08:08:15;;;;;;;3.72;1.50;;;;;;;;;;5019931;28;20072;-83
2023/07/12 08:10:41;;;;;;;3.53;1.40;;;;;;;;;;5038655;28;20046;-84
2023/07/12 08:13:12;;;;;;;3.35;1.35;;;;;;;;;;5038923;28;20026;-82
2023/07/12 08:15:37;;;;;;;2.75;1.40;;;;;;;;;;5039939;28;20069;-81
2023/07/12 08:18:04;;;;;;;3.75;1.60;;;;;;;;;;5037759;28;20041;-82
2023/07/12 08:20:44;;;;;;;2.58;1.20;;;;;;;;;;5032910;28;20037;-84
2023/07/12 08:23:12;;;;;;;;;;;;;;;;;;5039144;28;20033;-79
2023/07/12 08:25:38;;;;;;;2.90;1.20;;;;;;;;;;5017919;28;19909;-83
2023/07/12 08:28:03;;;;;;;3.47;1.10;;;;;;;;;;5017559;28;20037;-83
2023/07/12 08:30:29;;;;;;;5.22;1.45;;;;;;;;;;5015173;28;20048;-80
2023/07/12 08:32:55;;;;;;;2.97;1.10;;;;;;;;;;5036189;28;20025;-81
2023/07/12 08:35:20;;;;;;;2.05;1.00;;;;;;;;;;5037615;28;20483;-81
2023/07/12 08:37:46;;;;;;;3.22;1.25;;;;;;;;;;5035112;28;20038;-82
2023/07/12 08:40:15;;;;;;;2.72;1.20;;;;;;;;;;5034841;28;20037;-82
2023/07/12 08:42:42;;;;;;;3.40;1.30;;;;;;;;;;5028686;28;20040;-82
2023/07/12 08:45:30;;;;;;;5.03;1.60;;;;;;;;;;5032105;28;20018;-83
2023/07/12 08:48:01;;;;;;;3.88;1.48;;;;;;;;;;5029211;28;20448;-82
2023/07/12 08:50:34;;;;;;;5.20;1.52;;;;;;;;;;5030176;28;20113;-80
2023/07/12 08:52:59;;;;;;;6.00;1.45;;;;;;;;;;5030128;28;20030;-81
2023/07/12 08:55:25;;;;;;;4.53;1.50;;;;;;;;;;5028641;28;20132;-80
2023/07/12 08:58:03;;;;;;;3.92;1.52;;;;;;;;;;5025443;28;20042;-80
2023/07/12 09:00:32;;;;;;;4.35;1.40;;;;;;;;;;5023885;28;20037;-82
2023/07/12 09:02:59;;;;;;;3.90;1.65;;;;;;;;;;5029531;28;20033;-82
2023/07/12 09:05:25;;;;;;;3.45;1.63;;;;;;;;;;5025173;28;20022;-81
2023/07/12 09:07:50;;;;;;;3.90;1.48;;;;;;;;;;5026955;28;20040;-80
2023/07/12 09:10:39;;;;;;;4.63;1.50;;;;;;;;;;5022080;28;20040;-80
2023/07/12 09:13:06;;;;;;;3.35;1.55;;;;;;;;;;5024012;28;20136;-82
2023/07/12 09:15:43;;;;;;;3.72;1.50;;;;;;;;;;5023144;28;20034;-81
2023/07/12 09:18:30;;;;;;;7.47;1.60;;;;;;;;;;5023639;28;20037;-80
2023/07/12 09:20:59;;;;;;;2.97;1.55;;;;;;;;;;5004679;28;20393;-81
2023/07/12 09:23:25;;;;;;;2.88;1.58;;;;;;;;;;5021187;28;20040;-80
2023/07/12 09:25:55;;;;;;;3.33;1.70;;;;;;;;;;5028171;28;20038;-81
2023/07/12 09:28:24;;;;;;;4.85;1.52;;;;;;;;;;5024225;28;20113;-82
2023/07/12 09:30:51;;;;;;;3.08;1.73;;;;;;;;;;5022374;28;20061;-81
2023/07/12 09:33:26;;;;;;;2.33;1.40;;;;;;;;;;5026534;28;20118;-82
2023/07/12 09:35:52;;;;;;;3.97;1.70;;;;;;;;;;5026006;28;20025;-82
2023/07/12 09:38:26;;;;;;;4.18;1.80;;;;;;;;;;5025857;28;20067;-83
2023/07/12 09:40:53;;;;;;;3.67;1.90;;;;;;;;;;5024340;28;20511;-83
2023/07/12 09:43:24;;;;;;;3.67;1.70;;;;;;;;;;5030428;28;20034;-84
2023/07/12 09:46:11;;;;;;;4.22;1.63;;;;;;;;;;5028175;28;20064;-81
2023/07/12 09:48:42;;;;;;;4.45;1.80;;;;;;;;;;5022573;28;20033;-85
2023/07/12 09:51:10;;;;;;;4.70;2.00;;;;;;;;;;5024840;28;20038;-83
2023/07/12 09:53:57;;;;;;;3.70;1.80;;;;;;;;;;5023517;28;20038;-83
2023/07/12 09:56:40;;;;;;;4.00;1.90;;;;;;;;;;5016611;28;20441;-81
2023/07/12 09:59:33;;;;;;;5.28;2.00;;;;;;;;;;5010200;28;20583;-82
2023/07/12 10:02:20;;;;;;;5.25;1.70;;;;;;;;;;5009001;28;20046;-84
2023/07/12 10:05:08;;;;;;;4.60;1.70;;;;;;;;;;5031800;28;20095;-84
2023/07/12 10:07:49;;;;;;;2.38;1.50;;;;;;;;;;5035735;28;20041;-82
2023/07/12 10:10:17;;;;;;;5.32;1.77;;;;;;;;;;5031496;28;20099;-82
2023/07/12 10:13:29;;;;;;;5.00;1.70;;;;;;;;;;5031949;28;20037;-82
2023/07/12 10:15:55;;;;;;;2.50;1.60;;;;;;;;;;5042019;28;20033;-82
2023/07/12 10:18:27;;;;;;;4.32;1.75;;;;;;;;;;5037006;28;20030;-82
2023/07/12 10:20:54;;;;;;;3.25;1.80;;;;;;;;;;5035888;28;20069;-80
2023/07/12 10:23:25;;;;;;;5.35;1.67;;;;;;;;;;5026262;28;20034;-82
2023/07/12 10:25:59;;;;;;;2.67;1.60;;;;;;;;;;5038784;28;20026;-82
2023/07/12 10:28:41;;;;;;;4.30;1.80;;;;;;;;;;5033178;28;20033;-82
2023/07/12 10:31:18;;;;;;;4.28;1.70;;;;;;;;;;5041276;28;20471;-82
2023/07/12 10:33:48;;;;;;;5.63;1.70;;;;;;;;;;5041054;28;20549;-82
2023/07/12 10:36:22;;;;;;;5.38;1.95;;;;;;;;;;5041730;28;20040;-82
2023/07/12 10:38:48;;;;;;;3.50;1.60;;;;;;;;;;5041638;28;20097;-81
2023/07/12 10:41:20;;;;;;;5.25;1.50;;;;;;;;;;5040341;28;20522;-83
2023/07/12 10:43:49;;;;;;;3.88;1.70;;;;;;;;;;5039156;28;20095;-80
2023/07/12 10:46:21;;;;;;;2.55;1.40;;;;;;;;;;5035960;28;20029;-84
2023/07/12 10:48:51;;;;;;;4.10;1.80;;;;;;;;;;5008914;28;20038;-84
2023/07/12 10:51:16;;;;;;;3.83;1.67;;;;;;;;;;5035633;28;20076;-83
2023/07/12 10:53:54;;;;;;;3.88;1.60;;;;;;;;;;5029638;28;20029;-81
2023/07/12 10:56:26;;;;;;;5.88;1.50;;;;;;;;;;5032961;28;20485;-83
2023/07/12 10:58:59;;;;;;;5.25;1.52;;;;;;;;;;5028561;28;20093;-83
2023/07/12 11:01:49;;;;;;;3.03;1.70;;;;;;;;;;5028803;28;20049;-83
2023/07/12 11:04:33;;;;;;;4.15;1.70;;;;;;;;;;5028290;28;20399;-82
2023/07/12 11:07:01;;;;;;;3.08;1.70;;;;;;;;;;5027680;28;20045;-83
2023/07/12 11:09:49;;;;;;;4.55;1.70;;;;;;;;;;5027524;28;20045;-82
2023/07/12 11:12:30;;;;;;;3.85;1.60;;;;;;;;;;5019796;28;20452;-83
2023/07/12 11:15:17;;;;;;;3.78;1.90;;;;;;;;;;5007547;28;20049;-83
2023/07/12 11:18:20;;;;;;;5.22;1.52;;;;;;;;;;5024932;28;20049;-84
2023/07/12 11:21:04;;;;;;;2.07;1.50;;;;;;;;;;5029737;28;20033;-82
2023/07/12 11:23:47;;;;;;;2.60;1.75;;;;;;;;;;5030989;28;20291;-82
2023/07/12 11:26:25;;;;;;;3.77;1.73;;;;;;;;;;5029501;28;20128;-80
2023/07/12 11:28:51;;;;;;;4.13;1.52;;;;;;;;;;5023547;28;20047;-82
2023/07/12 11:31:16;;;;;;;2.45;1.60;;;;;;;;;;5026588;28;20034;-82
2023/07/12 11:34:04;;;;;;;2.15;1.60;;;;;;;;;;5025888;28;20124;-82
2023/07/12 11:36:34;;;;;;;4.28;1.80;;;;;;;;;;5021467;28;20053;-82
2023/07/12 11:39:00;;;;;;;4.15;1.80;;;;;;;;;;5026431;28;20038;-82
2023/07/12 11:41:28;;;;;;;3.72;1.70;;;;;;;;;;5033520;28;20037;-82
2023/07/12 11:44:13;;;;;;;4.97;1.58;;;;;;;;;;5015949;28;20041;-83
2023/07/12 11:46:40;;;;;;;4.18;1.70;;;;;;;;;;5028088;28;20033;-82
2023/07/12 11:49:15;;;;;;;2.78;1.55;;;;;;;;;;5027020;28;20061;-82
2023/07/12 11:51:43;;;;;;;3.10;1.63;;;;;;;;;;5044454;28;20093;-82
2023/07/12 11:54:34;;;;;;;3.78;1.58;;;;;;;;;;5020090;28;20041;-84
2023/07/12 11:57:02;;;;;;;2.35;1.30;;;;;;;;;;5020148;28;20045;-82
2023/07/12 11:59:29;;;;;;;2.75;1.38;;;;;;;;;;5014270;28;20092;-85
2023/07/12 12:01:55;;;;;;;1.92;1.40;;;;;;;;;;5003640;28;20094;-83
2023/07/12 12:04:27;;;;;;;3.17;1.40;;;;;;;;;;5003567;28;20060;-83
2023/07/12 12:07:20;;;;;;;11.05;1.50;;;;;;;;;;5037481;28;20033;-83
2023/07/12 12:09:47;;;;;;;2.75;1.45;;;;;;;;;;5047996;28;20042;-83
2023/07/12 12:12:16;;;;;;;4.97;1.60;;;;;;;;;;5033938;28;20139;-82
2023/07/12 12:14:42;;;;;;;2.53;1.40;;;;;;;;;;5037307;28;20033;-84
2023/07/12 12:17:17;;;;;;;3.20;1.52;;;;;;;;;;5029501;28;20389;-83
2023/07/12 12:19:48;;;;;;;2.58;1.60;;;;;;;;;;5029663;28;20034;-84
2023/07/12 12:22:17;;;;;;;4.05;1.65;;;;;;;;;;5028933;28;20116;-83
2023/07/12 12:24:48;;;;;;;3.13;1.30;;;;;;;;;;5028663;28;20366;-83
2023/07/12 12:27:20;;;;;;;3.97;1.48;;;;;;;;;;5026733;28;20048;-85
2023/07/12 12:29:45;;;;;;;1.75;1.40;;;;;;;;;;5025002;28;20037;-82
2023/07/12 12:32:16;;;;;;;3.78;1.80;;;;;;;;;;5026365;28;20100;-83
2023/07/12 12:34:51;;;;;;;2.17;1.45;;;;;;;;;;5032959;28;20111;-85
2023/07/12 12:37:28;;;;;;;5.10;1.60;;;;;;;;;;5016992;28;20100;-85
2023/07/12 12:40:23;;;;;;;5.97;1.80;;;;;;;;;;5040087;28;20038;-86
2023/07/12 12:43:00;;;;;;;1.60;1.50;;;;;;;;;;5030007;28;20567;-86
2023/07/12 12:45:35;;;;;;;2.42;1.60;;;;;;;;;;5023028;28;20037;-87
2023/07/12 12:48:00;;;;;;;3.40;1.50;;;;;;;;;;4998355;28;20473;-86
2023/07/12 12:50:26;;;;;;;3.13;1.50;;;;;;;;;;5022781;28;20072;-83
2023/07/12 12:53:00;;;;;;;2.70;1.60;;;;;;;;;;5035918;28;20621;-83
2023/07/12 12:55:26;;;;;;;3.22;1.60;;;;;;;;;;5013662;28;20041;-83
2023/07/12 12:57:52;;;;;;;2.70;1.50;;;;;;;;;;5033791;28;20037;-85
2023/07/12 13:00:22;;;;;;;3.88;1.80;;;;;;;;;;5032721;28;20435;-84
2023/07/12 13:02:50;;;;;;;3.53;1.58;;;;;;;;;;5027078;28;20400;-83
2023/07/12 13:05:16;;;;;;;4.93;1.90;;;;;;;;;;5035732;28;20104;-85
2023/07/12 13:07:43;;;;;;;2.72;1.67;;;;;;;;;;5030242;28;20046;-85
2023/07/12 13:10:15;;;;;;;9.20;2.10;;;;;;;;;;5028118;28;20041;-84
2023/07/12 13:12:42;;;;;;;5.72;1.70;;;;;;;;;;5026700;28;20030;-83
2023/07/12 13:15:19;;;;;;;3.53;1.70;;;;;;;;;;5023826;28;20084;-83
2023/07/12 13:17:45;;;;;;;3.05;1.70;;;;;;;;;;5024894;28;20065;-83
2023/07/12 13:20:17;;;;;;;3.92;1.80;;;;;;;;;;5024964;28;20037;-83
2023/07/12 13:22:45;;;;;;;3.78;1.60;;;;;;;;;;5022006;28;20128;-84
2023/07/12 13:25:12;;;;;;;2.17;1.50;;;;;;;;;;5019640;28;20048;-83
2023/07/12 13:27:45;;;;;;;3.85;1.98;;;;;;;;;;5020884;28;20036;-83
2023/07/12 13:30:12;;;;;;;;;;;;;;;;;;5022367;28;20034;-81
2023/07/12 13:32:38;;;;;;;5.10;1.90;;;;;;;;;;5033053;28;19944;-83
2023/07/12 13:35:05;;;;;;;4.70;1.90;;;;;;;;;;5021722;28;20025;-83
2023/07/12 13:37:32;;;;;;;4.07;1.67;;;;;;;;;;5021269;28;20044;-83
2023/07/12 13:39:58;;;;;;;3.33;1.70;;;;;;;;;;5019638;28;20045;-83
2023/07/12 13:42:25;;;;;;;4.65;1.80;;;;;;;;;;5024196;28;20064;-83
2023/07/12 13:44:51;;;;;;;4.30;1.83;;;;;;;;;;5032556;28;20033;-82
2023/07/12 13:47:25;;;;;;;4.43;1.75;;;;;;;;;;5017160;28;20041;-84
2023/07/12 13:49:51;;;;;;;2.78;1.80;;;;;;;;;;5030898;28;20030;-83
2023/07/12 13:52:19;;;;;;;3.58;2.00;;;;;;;;;;5034922;28;20526;-83
2023/07/12 13:54:46;;;;;;;4.55;2.00;;;;;;;;;;5032963;28;20041;-85
2023/07/12 13:57:17;;;;;;;4.53;2.00;;;;;;;;;;5057554;23;20049;-80
2023/07/12 13:59:44;;;;;;;4.00;1.92;;;;;;;;;;5023603;28;20125;-80
2023/07/12 14:02:21;;;;;;;2.60;1.70;;;;;;;;;;5024394;28;20029;-80
2023/07/12 14:04:49;;;;;;;4.95;2.15;;;;;;;;;;5023555;28;20108;-83
2023/07/12 14:07:15;;;;;;;2.55;1.98;;;;;;;;;;5026091;28;20449;-85
2023/07/12 14:09:40;;;;;;;4.07;1.98;;;;;;;;;;5029160;28;20108;-82
2023/07/12 14:12:14;;;;;;;3.40;1.90;;;;;;;;;;5027349;28;20516;-82
2023/07/12 14:14:42;;;;;;;4.07;1.90;;;;;;;;;;5021019;28;20504;-86
2023/07/12 14:17:13;;;;;;;5.75;1.98;;;;;;;;;;5017296;28;20058;-85
2023/07/12 14:19:40;;;;;;;4.75;2.10;;;;;;;;;;5014829;28;20075;-86
2023/07/12 14:22:20;;;;;;;4.35;2.05;;;;;;;;;;5016688;28;20040;-85
2023/07/12 14:24:46;;;;;;;4.90;2.17;;;;;;;;;;5026568;28;20034;-85
2023/07/12 14:27:29;;;;;;;4.60;2.00;;;;;;;;;;5028239;28;20060;-86
2023/07/12 14:29:56;;;;;;;3.70;2.10;;;;;;;;;;5027960;28;20041;-84
2023/07/12 14:32:28;;;;;;;4.25;2.40;;;;;;;;;;5036144;28;20104;-85
2023/07/12 14:34:53;;;;;;;5.53;2.10;;;;;;;;;;5022569;28;20038;-84
2023/07/12 14:37:23;;;;;;;4.03;2.20;;;;;;;;;;5018782;28;20041;-84
2023/07/12 14:39:49;;;;;;;4.90;2.20;;;;;;;;;;5019672;28;20040;-84
2023/07/12 14:42:33;;;;;;;7.72;2.22;;;;;;;;;;5016418;28;20037;-84
2023/07/12 14:44:59;;;;;;;4.45;2.28;;;;;;;;;;5027226;28;20033;-83
2023/07/12 14:47:25;;;;;;;7.72;2.25;;;;;;;;;;5012511;28;20531;-84
2023/07/12 14:49:52;;;;;;;5.00;2.10;;;;;;;;;;5018316;28;20175;-85
2023/07/12 14:52:29;;;;;;;5.13;2.30;;;;;;;;;;5016303;28;20042;-86
2023/07/12 14:54:57;;;;;;;4.47;2.13;;;;;;;;;;5028184;28;20564;-84
2023/07/12 14:57:23;;;;;;;4.38;2.13;;;;;;;;;;5030756;28;20038;-84
2023/07/12 14:59:49;;;;;;;7.20;2.10;;;;;;;;;;5029523;28;20094;-85
2023/07/12 15:02:20;;;;;;;4.00;2.22;;;;;;;;;;5026089;28;20068;-85
2023/07/12 15:04:49;;;;;;;4.95;2.25;;;;;;;;;;5020979;28;20040;-85
2023/07/12 15:07:24;;;;;;;4.38;2.08;;;;;;;;;;5032045;28;20045;-85
2023/07/12 15:09:51;;;;;;;3.95;2.20;;;;;;;;;;5023221;28;20038;-85